createdAt,value
2022-10-02T00:01:50.031Z,11.37
2022-10-02T00:04:23.661Z,11.43
2022-10-02T00:06:53.167Z,11.44
2022-10-02T00:09:32.575Z,11.59
2022-10-02T00:12:00.350Z,11.66
2022-10-02T00:14:33.604Z,11.63
2022-10-02T00:17:01.396Z,11.60
2022-10-02T00:19:28.023Z,11.61
2022-10-02T00:22:00.541Z,11.77
2022-10-02T00:25:16.577Z,11.82
2022-10-02T00:27:50.827Z,11.86
2022-10-02T00:30:18.545Z,11.90
2022-10-02T00:33:07.170Z,11.82
2022-10-02T00:35:55.907Z,11.84
2022-10-02T00:38:41.396Z,11.90
2022-10-02T00:41:10.723Z,11.94
2022-10-02T00:43:40.171Z,12.03
2022-10-02T00:46:20.065Z,12.08
2022-10-02T00:49:11.193Z,12.07
2022-10-02T00:51:55.850Z,12.14
2022-10-02T00:54:44.736Z,12.16
2022-10-02T00:57:29.414Z,12.05
2022-10-02T01:00:16.221Z,12.06
2022-10-02T01:03:08.172Z,12.07
2022-10-02T01:05:34.732Z,12.11
2022-10-02T01:08:02.466Z,12.04
2022-10-02T01:10:29.624Z,12.20
2022-10-02T01:12:57.756Z,12.18
2022-10-02T01:15:31.240Z,12.22
2022-10-02T01:17:58.399Z,12.21
2022-10-02T01:20:33.470Z,12.22
2022-10-02T01:23:06.026Z,12.29
2022-10-02T01:25:32.641Z,12.29
2022-10-02T01:27:59.303Z,12.22
2022-10-02T01:30:25.936Z,12.21
2022-10-02T01:32:56.374Z,12.24
2022-10-02T01:35:28.127Z,12.24
2022-10-02T01:37:55.842Z,12.17
2022-10-02T01:40:36.569Z,12.22
2022-10-02T01:43:16.990Z,12.18
2022-10-02T01:45:51.251Z,12.23
2022-10-02T01:48:43.796Z,12.24
2022-10-02T01:51:22.048Z,12.23
2022-10-02T01:54:33.239Z,12.27
2022-10-02T01:57:21.065Z,12.35
2022-10-02T02:00:12.466Z,12.33
2022-10-02T02:02:47.118Z,12.31
2022-10-02T02:05:32.771Z,12.30
2022-10-02T02:08:15.761Z,12.24
2022-10-02T02:11:00.325Z,12.26
2022-10-02T02:13:41.222Z,12.20
2022-10-02T02:16:21.778Z,12.22
2022-10-02T02:19:23.858Z,12.22
2022-10-02T02:21:58.603Z,12.30
2022-10-02T02:24:32.878Z,12.21
2022-10-02T02:27:02.045Z,12.18
2022-10-02T02:29:32.889Z,12.18
2022-10-02T02:32:02.641Z,12.18
2022-10-02T02:34:35.212Z,12.25
2022-10-02T02:37:07.139Z,12.34
2022-10-02T02:39:59.251Z,12.35
2022-10-02T02:42:30.200Z,12.28
2022-10-02T02:45:15.366Z,12.31
2022-10-02T02:47:47.636Z,12.37
2022-10-02T02:50:23.251Z,12.31
2022-10-02T02:53:04.216Z,12.30
2022-10-02T02:55:57.507Z,12.27
2022-10-02T02:58:36.298Z,12.16
2022-10-02T03:01:02.946Z,12.23
2022-10-02T03:03:29.607Z,12.15
2022-10-02T03:06:26.401Z,12.15
2022-10-02T03:08:54.848Z,12.16
2022-10-02T03:11:33.982Z,12.14
2022-10-02T03:14:28.031Z,12.12
2022-10-02T03:16:57.449Z,12.14
2022-10-02T03:19:49.800Z,12.15
2022-10-02T03:22:19.228Z,12.11
2022-10-02T03:25:13.684Z,12.17
2022-10-02T03:27:51.174Z,12.29
2022-10-02T03:30:21.890Z,12.34
2022-10-02T03:32:53.419Z,12.32
2022-10-02T03:35:22.473Z,12.35
2022-10-02T03:37:52.745Z,12.40
2022-10-02T03:40:24.281Z,12.43
2022-10-02T03:42:52.585Z,12.48
2022-10-02T03:45:46.204Z,12.39
2022-10-02T03:48:06.136Z,12.45
2022-10-02T03:50:36.359Z,12.32
2022-10-02T03:53:11.153Z,12.40
2022-10-02T03:55:45.098Z,12.30
2022-10-02T03:58:17.526Z,12.30
2022-10-02T04:01:05.685Z,12.24
2022-10-02T04:03:40.448Z,12.18
2022-10-02T04:06:09.519Z,12.13
2022-10-02T04:08:56.561Z,12.10
2022-10-02T04:11:32.359Z,12.10
2022-10-02T04:14:28.473Z,12.09
2022-10-02T04:17:07.412Z,12.14
2022-10-02T04:19:41.829Z,12.15
2022-10-02T04:22:21.666Z,12.19
2022-10-02T04:24:58.618Z,12.24
2022-10-02T04:27:40.336Z,12.22
2022-10-02T04:30:12.701Z,12.29
2022-10-02T04:32:39.306Z,12.25
2022-10-02T04:35:13.397Z,12.25
2022-10-02T04:37:48.629Z,12.27
2022-10-02T04:40:30.043Z,12.36
2022-10-02T04:43:27.149Z,12.33
2022-10-02T04:45:53.642Z,12.33
2022-10-02T04:48:20.180Z,12.37
2022-10-02T04:51:11.046Z,12.38
2022-10-02T04:53:45.700Z,12.36
2022-10-02T04:56:32.857Z,12.42
2022-10-02T04:58:59.268Z,12.42
2022-10-02T05:01:42.524Z,12.45
2022-10-02T05:04:24.756Z,12.35
2022-10-02T05:07:39.430Z,12.36
2022-10-02T05:10:27.706Z,12.44
2022-10-02T05:13:25.111Z,12.34
2022-10-02T05:16:00.889Z,12.42
2022-10-02T05:18:42.550Z,12.38
2022-10-02T05:21:34.489Z,12.35
2022-10-02T05:24:32.709Z,12.32
2022-10-02T05:27:41.871Z,12.43
2022-10-02T05:30:19.186Z,12.43
2022-10-02T05:33:00.933Z,12.50
2022-10-02T05:35:47.571Z,12.51
2022-10-02T05:38:43.341Z,12.52
2022-10-02T05:41:33.875Z,12.52
2022-10-02T05:44:06.478Z,12.52
2022-10-02T05:46:38.706Z,12.49
2022-10-02T05:49:23.903Z,12.52
2022-10-02T05:52:03.817Z,12.51
2022-10-02T05:54:34.904Z,12.46
2022-10-02T05:57:07.412Z,12.56
2022-10-02T05:59:39.435Z,12.46
2022-10-02T06:02:24.403Z,12.45
2022-10-02T06:05:11.569Z,12.37
2022-10-02T06:07:38.414Z,12.47
2022-10-02T06:10:16.442Z,12.42
2022-10-02T06:12:55.601Z,12.55
2022-10-02T06:15:37.423Z,12.52
2022-10-02T06:18:19.919Z,12.50
2022-10-02T06:20:53.997Z,12.44
2022-10-02T06:23:40.875Z,12.48
2022-10-02T06:26:15.584Z,12.46
2022-10-02T06:28:54.130Z,12.46
2022-10-02T06:31:35.951Z,12.58
2022-10-02T06:34:02.557Z,12.61
2022-10-02T06:36:31.796Z,12.59
2022-10-02T06:39:13.506Z,12.60
2022-10-02T06:41:43.993Z,12.66
2022-10-02T06:44:35.509Z,12.66
2022-10-02T06:47:35.137Z,12.63
2022-10-02T06:50:23.980Z,12.65
2022-10-02T06:53:13.781Z,12.71
2022-10-02T06:55:45.906Z,12.73
2022-10-02T06:58:41.962Z,12.82
2022-10-02T07:01:42.699Z,12.84
2022-10-02T07:04:25.981Z,12.79
2022-10-02T07:06:58.304Z,12.80
2022-10-02T07:09:55.900Z,12.85
2022-10-02T07:12:25.069Z,12.84
2022-10-02T07:15:29.560Z,12.92
2022-10-02T07:18:03.816Z,13.04
2022-10-02T07:20:48.682Z,13.02
2022-10-02T07:23:27.266Z,13.03
2022-10-02T07:25:59.599Z,13.03
2022-10-02T07:28:43.630Z,13.10
2022-10-02T07:31:38.835Z,13.16
2022-10-02T07:34:14.596Z,13.18
2022-10-02T07:36:56.701Z,13.17
2022-10-02T07:39:41.931Z,13.20
2022-10-02T07:43:00.408Z,13.11
2022-10-02T07:45:37.525Z,13.25
2022-10-02T07:48:19.340Z,13.24
2022-10-02T07:51:43.686Z,13.21
2022-10-02T07:54:30.343Z,13.34
2022-10-02T07:57:00.723Z,13.41
2022-10-02T07:59:31.379Z,13.51
2022-10-02T08:01:58.799Z,13.52
2022-10-02T08:04:36.138Z,13.57
2022-10-02T08:07:05.334Z,13.62
2022-10-02T08:09:37.863Z,13.63
2022-10-02T08:12:32.321Z,13.70
2022-10-02T08:14:59.845Z,13.72
2022-10-02T08:17:37.858Z,13.74
2022-10-02T08:20:15.011Z,13.75
2022-10-02T08:22:48.015Z,13.84
2022-10-02T08:25:22.388Z,13.90
2022-10-02T08:28:05.562Z,13.92
2022-10-02T08:30:32.146Z,13.98
2022-10-02T08:32:58.695Z,14.03
2022-10-02T08:35:40.224Z,14.14
2022-10-02T08:38:32.479Z,14.16
2022-10-02T08:41:32.780Z,14.19
2022-10-02T08:44:21.405Z,14.17
2022-10-02T08:47:21.896Z,14.15
2022-10-02T08:50:19.958Z,14.09
2022-10-02T08:53:23.627Z,13.99
2022-10-02T08:56:20.299Z,14.02
2022-10-02T08:58:49.916Z,14.02
2022-10-02T09:01:45.371Z,14.07
2022-10-02T09:04:38.127Z,13.99
2022-10-02T09:07:49.986Z,14.06
2022-10-02T09:11:03.982Z,14.12
2022-10-02T09:13:49.882Z,14.26
2022-10-02T09:16:24.992Z,14.34
2022-10-02T09:18:59.915Z,14.44
2022-10-02T09:21:50.982Z,14.53
2022-10-02T09:24:31.112Z,14.57
2022-10-02T09:27:28.982Z,14.59
2022-10-02T09:30:19.466Z,14.58
2022-10-02T09:32:54.900Z,14.73
2022-10-02T09:36:12.809Z,14.64
2022-10-02T09:39:16.699Z,14.71
2022-10-02T09:41:52.411Z,14.74
2022-10-02T09:44:22.458Z,14.76
2022-10-02T09:47:19.048Z,14.75
2022-10-02T09:50:00.782Z,14.79
2022-10-02T09:52:40.613Z,14.81
2022-10-02T09:55:38.393Z,14.66
2022-10-02T09:58:17.077Z,14.71
2022-10-02T10:00:51.283Z,14.64
2022-10-02T10:03:47.880Z,14.63
2022-10-02T10:06:29.213Z,14.49
2022-10-02T10:09:23.730Z,14.60
2022-10-02T10:12:02.780Z,14.67
2022-10-02T10:14:42.833Z,14.75
2022-10-02T10:17:21.387Z,14.76
2022-10-02T10:20:22.172Z,14.73
2022-10-02T10:23:10.716Z,14.61
2022-10-02T10:26:00.060Z,14.54
2022-10-02T10:28:37.922Z,14.48
2022-10-02T10:31:31.603Z,14.55
2022-10-02T10:34:29.226Z,14.44
2022-10-02T10:37:39.430Z,14.48
2022-10-02T10:40:24.144Z,14.50
2022-10-02T10:43:28.435Z,14.57
2022-10-02T10:46:25.236Z,14.74
2022-10-02T10:49:13.101Z,14.87
2022-10-02T10:51:53.466Z,14.97
2022-10-02T10:54:44.746Z,15.11
2022-10-02T10:57:32.853Z,15.04
2022-10-02T11:00:02.807Z,14.94
2022-10-02T11:02:56.406Z,14.75
2022-10-02T11:05:47.437Z,14.60
2022-10-02T11:08:58.429Z,14.34
2022-10-02T11:11:31.485Z,14.36
2022-10-02T11:14:49.099Z,14.40
2022-10-02T11:17:43.109Z,14.31
2022-10-02T11:20:34.563Z,14.30
2022-10-02T11:23:36.434Z,14.34
2022-10-02T11:26:25.133Z,14.44
2022-10-02T11:29:06.843Z,14.64
2022-10-02T11:31:33.272Z,14.72
2022-10-02T11:34:19.764Z,14.76
2022-10-02T12:29:40.958Z,15.78
2022-10-02T12:32:28.098Z,15.78
2022-10-02T12:35:03.660Z,15.76
2022-10-02T12:37:36.374Z,15.77
2022-10-02T12:40:27.312Z,15.73
2022-10-02T12:43:26.979Z,15.48
2022-10-02T12:46:32.417Z,15.48
2022-10-02T12:49:20.247Z,15.36
2022-10-02T12:52:06.055Z,15.34
2022-10-02T12:54:50.913Z,15.47
2022-10-02T12:57:47.053Z,15.63
2022-10-02T13:00:17.154Z,15.81
2022-10-02T13:03:12.741Z,15.87
2022-10-02T13:06:06.876Z,15.92
2022-10-02T13:08:50.343Z,15.89
2022-10-02T13:11:32.846Z,15.75
2022-10-02T13:14:05.315Z,15.81
2022-10-02T13:16:36.777Z,15.88
2022-10-02T13:19:34.149Z,15.67
2022-10-02T13:22:23.784Z,15.69
2022-10-02T13:25:02.605Z,15.70
2022-10-02T13:27:31.901Z,15.65
2022-10-02T13:30:19.687Z,15.73
2022-10-02T13:32:49.964Z,15.69
2022-10-02T13:36:09.077Z,15.79
2022-10-02T13:38:38.524Z,15.65
2022-10-02T13:41:20.309Z,15.71
2022-10-02T13:44:12.177Z,15.83
2022-10-02T13:47:00.085Z,15.81
2022-10-02T13:49:39.795Z,15.70
2022-10-02T13:52:12.307Z,15.85
2022-10-02T13:55:02.430Z,15.92
2022-10-02T13:57:47.180Z,15.82
2022-10-02T14:00:37.519Z,15.91
2022-10-02T14:03:22.029Z,15.73
2022-10-02T14:06:00.566Z,15.78
2022-10-02T14:08:42.516Z,15.71
2022-10-02T14:11:20.216Z,15.70
2022-10-02T14:14:24.481Z,15.62
2022-10-02T14:17:05.767Z,15.59
2022-10-02T14:19:54.364Z,15.62
2022-10-02T14:22:36.022Z,15.59
2022-10-02T14:25:12.531Z,15.54
2022-10-02T14:28:11.116Z,15.45
2022-10-02T14:30:49.749Z,15.37
2022-10-02T14:33:32.587Z,15.42
2022-10-02T14:36:09.254Z,15.41
2022-10-02T14:38:54.060Z,15.43
2022-10-02T14:41:42.700Z,15.35
2022-10-02T14:44:32.391Z,15.45
2022-10-02T14:47:29.036Z,15.42
2022-10-02T14:50:23.696Z,15.42
2022-10-02T14:53:15.240Z,15.40
2022-10-02T14:56:00.189Z,15.25
2022-10-02T14:59:09.741Z,15.18
2022-10-02T15:01:53.912Z,15.25
2022-10-02T15:04:47.728Z,15.17
2022-10-02T15:07:18.168Z,15.16
2022-10-02T15:10:22.206Z,15.08
2022-10-02T15:13:06.922Z,15.09
2022-10-02T15:16:15.976Z,15.09
2022-10-02T15:19:37.139Z,15.04
2022-10-02T15:22:31.616Z,15.02
2022-10-02T15:25:06.566Z,15.00
2022-10-02T15:28:31.817Z,15.00
2022-10-02T15:31:07.245Z,14.91
2022-10-02T15:33:40.476Z,14.85
2022-10-02T15:36:36.558Z,14.76
2022-10-02T15:39:13.743Z,14.80
2022-10-02T15:42:07.175Z,14.73
2022-10-02T15:44:42.532Z,14.65
2022-10-02T15:47:24.601Z,14.61
2022-10-02T15:50:33.443Z,14.62
2022-10-02T15:53:34.652Z,14.64
2022-10-02T15:56:29.212Z,14.67
2022-10-02T15:59:35.229Z,14.68
2022-10-02T16:02:32.457Z,14.67
2022-10-02T16:05:15.159Z,14.69
2022-10-02T16:07:44.785Z,14.78
2022-10-02T16:10:20.298Z,14.84
2022-10-02T16:13:08.652Z,14.81
2022-10-02T16:16:00.747Z,14.64
2022-10-02T16:18:54.514Z,14.47
2022-10-02T16:21:30.896Z,14.30
2022-10-02T16:24:24.744Z,14.14
2022-10-02T16:27:15.667Z,14.01
2022-10-02T16:29:54.512Z,14.01
2022-10-02T16:32:39.316Z,13.86
2022-10-02T16:36:01.106Z,13.69
2022-10-02T16:38:41.874Z,13.60
2022-10-02T16:41:32.773Z,13.58
2022-10-02T16:44:23.151Z,13.52
2022-10-02T16:46:58.808Z,13.49
2022-10-02T16:49:43.339Z,13.41
2022-10-02T16:52:34.654Z,13.39
2022-10-02T16:55:15.012Z,13.27
2022-10-02T16:57:49.338Z,13.17
2022-10-02T17:00:22.518Z,13.07
2022-10-02T17:02:55.972Z,13.15
2022-10-02T17:05:44.384Z,13.06
2022-10-02T17:08:22.949Z,12.98
2022-10-02T17:11:21.452Z,12.95
2022-10-02T17:14:02.909Z,12.91
2022-10-02T17:16:40.235Z,12.79
2022-10-02T17:19:31.805Z,12.76
2022-10-02T17:22:03.829Z,12.68
2022-10-02T17:24:41.532Z,12.62
2022-10-02T17:27:18.079Z,12.54
2022-10-02T17:30:04.907Z,12.47
2022-10-02T17:32:37.674Z,12.42
2022-10-02T17:35:16.432Z,12.42
2022-10-02T17:38:20.278Z,12.50
2022-10-02T17:40:54.169Z,12.48
2022-10-02T17:43:50.597Z,12.65
2022-10-02T17:46:19.983Z,12.68
2022-10-02T17:48:52.253Z,12.72
2022-10-02T17:51:52.718Z,12.79
2022-10-02T17:54:40.771Z,12.76
2022-10-02T17:57:24.005Z,12.82
2022-10-02T18:00:10.012Z,12.81
2022-10-02T18:03:04.352Z,12.81
2022-10-02T18:05:50.459Z,12.83
2022-10-02T18:08:35.487Z,12.87
2022-10-02T18:11:08.023Z,13.03
2022-10-02T18:13:43.526Z,12.97
2022-10-02T18:16:22.135Z,13.08
2022-10-02T18:19:18.131Z,13.02
2022-10-02T18:21:58.896Z,13.18
2022-10-02T18:24:46.008Z,13.09
2022-10-02T18:27:30.712Z,13.13
2022-10-02T18:30:15.898Z,13.13
2022-10-02T18:33:02.254Z,13.10
2022-10-02T18:35:52.390Z,13.22
2022-10-02T18:38:40.549Z,13.17
2022-10-02T18:41:12.919Z,13.10
2022-10-02T18:44:02.313Z,13.07
2022-10-02T18:46:46.689Z,13.09
2022-10-02T18:49:46.936Z,13.14
2022-10-02T18:52:29.619Z,13.03
2022-10-02T18:55:05.820Z,13.02
2022-10-02T18:57:51.565Z,13.02
2022-10-02T19:00:22.151Z,12.97
2022-10-02T19:03:13.422Z,12.94
2022-10-02T19:05:55.469Z,12.95
2022-10-02T19:09:08.558Z,12.87
2022-10-02T19:12:05.024Z,12.81
2022-10-02T19:14:33.109Z,12.84
2022-10-02T19:17:05.935Z,12.91
2022-10-02T19:19:33.162Z,12.95
2022-10-02T19:22:14.884Z,12.82
2022-10-02T19:24:43.983Z,12.74
2022-10-02T19:27:18.000Z,12.74
2022-10-02T19:29:54.339Z,12.75
2022-10-02T19:32:25.640Z,12.72
2022-10-02T19:35:01.417Z,12.65
2022-10-02T19:37:28.336Z,12.60
2022-10-02T19:40:00.628Z,12.55
2022-10-02T19:42:31.105Z,12.48
2022-10-02T19:45:05.912Z,12.47
2022-10-02T19:47:50.163Z,12.47
2022-10-02T19:50:23.243Z,12.45
2022-10-02T19:52:57.354Z,12.33
2022-10-02T19:55:27.298Z,12.25
2022-10-02T19:57:59.338Z,12.17
2022-10-02T20:00:26.100Z,12.05
2022-10-02T20:02:58.858Z,12.00
2022-10-02T20:05:29.086Z,11.91
2022-10-02T20:08:07.080Z,11.85
2022-10-02T20:10:50.299Z,11.85
2022-10-02T20:13:23.087Z,11.80
2022-10-02T20:16:32.240Z,11.85
2022-10-02T20:18:59.040Z,11.84
2022-10-02T20:21:38.505Z,11.82
2022-10-02T20:24:13.888Z,11.76
2022-10-02T20:26:41.589Z,11.68
2022-10-02T20:29:18.607Z,11.63
2022-10-02T20:31:58.268Z,11.58
2022-10-02T20:34:33.726Z,11.61
2022-10-02T20:37:08.528Z,11.67
2022-10-02T20:39:49.572Z,11.46
2022-10-02T20:42:29.466Z,11.50
2022-10-02T20:44:55.790Z,11.40
2022-10-02T20:47:28.630Z,11.35
2022-10-02T20:50:33.094Z,11.27
2022-10-02T20:53:17.616Z,11.29
2022-10-02T20:56:21.788Z,11.32
2022-10-02T20:59:33.195Z,11.23
2022-10-02T21:02:18.315Z,11.14
2022-10-02T21:05:15.302Z,11.16
2022-10-02T21:07:56.759Z,11.23
2022-10-02T21:10:29.116Z,11.20
2022-10-02T21:13:01.394Z,11.20
2022-10-02T21:15:52.366Z,11.23
2022-10-02T21:18:41.935Z,11.22
2022-10-02T21:21:24.587Z,11.21
2022-10-02T21:24:18.803Z,11.24
2022-10-02T21:27:03.695Z,11.22
2022-10-02T21:29:41.387Z,11.21
2022-10-02T21:32:41.591Z,11.28
2022-10-02T21:35:16.560Z,11.22
2022-10-02T21:38:09.159Z,11.14
2022-10-02T21:40:45.614Z,11.11
2022-10-02T21:43:47.998Z,11.01
2022-10-02T21:46:42.573Z,10.91
2022-10-02T21:49:21.075Z,10.85
2022-10-02T21:52:08.740Z,10.78
2022-10-02T21:55:13.246Z,10.76
2022-10-02T21:58:05.183Z,10.69
2022-10-02T22:00:36.614Z,10.61
2022-10-02T22:03:31.111Z,10.61
2022-10-02T22:06:29.995Z,10.54
2022-10-02T22:08:59.357Z,10.52
2022-10-02T22:11:56.231Z,10.44
2022-10-02T22:14:40.867Z,10.38
2022-10-02T22:17:44.788Z,10.32
2022-10-02T22:20:55.772Z,10.26
2022-10-02T22:23:25.299Z,10.23
2022-10-02T22:26:28.985Z,10.16
2022-10-02T22:29:19.264Z,10.10
2022-10-02T22:32:20.197Z,10.05
2022-10-02T22:35:03.813Z,9.98
2022-10-02T22:38:09.593Z,9.92
2022-10-02T22:40:52.305Z,9.86
2022-10-02T22:43:45.785Z,9.84
2022-10-02T22:46:44.010Z,9.83
2022-10-02T22:49:39.918Z,9.77
2022-10-02T22:52:16.016Z,9.75
2022-10-02T22:55:06.481Z,9.72
2022-10-02T22:57:32.933Z,9.68
2022-10-02T23:00:05.944Z,9.66
2022-10-02T23:02:49.200Z,9.61
2022-10-02T23:05:26.025Z,9.59
2022-10-02T23:08:02.748Z,9.62
2022-10-02T23:10:43.515Z,9.64
2022-10-02T23:13:16.404Z,9.66
2022-10-02T23:15:56.844Z,9.64
2022-10-02T23:18:36.502Z,9.61
2022-10-02T23:21:08.453Z,9.51
2022-10-02T23:23:50.793Z,9.45
2022-10-02T23:26:33.279Z,9.43
2022-10-02T23:29:26.268Z,9.46
2022-10-02T23:32:31.485Z,9.45
2022-10-02T23:35:06.740Z,9.44
2022-10-02T23:37:45.550Z,9.41
2022-10-02T23:40:47.851Z,9.44
2022-10-02T23:43:31.323Z,9.42
2022-10-02T23:46:10.359Z,9.36
2022-10-02T23:48:38.670Z,9.37
2022-10-02T23:51:24.028Z,9.34
2022-10-02T23:54:18.552Z,9.35
2022-10-02T23:57:17.516Z,9.27
